Log in Register

Login to your account

Username *
Password *
Remember Me

Create an account

Fields marked with an asterisk (*) are required.
Name *
Username *
Password *
Verify password *
Email *
Verify email *
Captcha *

METAR/TAF de Chambéry

[source: ADDS]
METAR / TAF
LFLB 260100Z AUTO 36010KT CAVOK 17/09 Q1023 =
TAF LFLB 251400Z 2515/2615 36010KT CAVOK TEMPO 2515/2522 BKN060

SR / SS: 03:54 / 19:12 UTC (Lever/Coucher du soleil le 2022-05-26)

 

Webcam de l'Aéroclub - Parking Lima et SW (réactualisation : 5min)

Cliquer ici pour une animation sur les 3 dernières heures / Cliquer sur l'image pour l'agrandir dans une nouvelle fenêtre

 

Webcam de l'Aéroclub - Manche à air et WA (réactualisation : 5min)

Cliquer ici pour une animation sur les 3 dernières heures / Cliquer sur l'image pour l'agrandir dans une nouvelle fenêtre

 

 

Webcams Tierces :

 

Webcam Belvédère du Revard - 360-SW-WA-EY-NL / 4955ft

Webcam Décollage parapente Pragondran - WA-NL / 2970ft

Webcam Bourget du Lac - 360-WA-EY

Webcam port d'Aix les Bains - 360

Webcam Belvédère d'Ontex- Vers l'est - EY / 1985ft

Webcam Belvédère de la Chambotte - Vers l'Ouest - WA-NL / 2200ft

Webcam port de Chatillon - 360-NL

Webcam La Motte Servolex - Vers l'Est - Croix du Nivolet / 1065ft

Webcam Aérodrome de Challes - LFLE - Vers l'Est - Mont St Michel

JSN Boot template designed by JoomlaShine.com